createdAt,value
2017-04-04T00:00:00.712Z,0
2017-04-04T00:02:15.867Z,0
2017-04-04T00:04:39.450Z,0
2017-04-04T00:07:02.824Z,0
2017-04-04T00:09:26.458Z,0
2017-04-04T00:11:49.977Z,0
2017-04-04T00:14:13.455Z,0
2017-04-04T00:16:36.925Z,0
2017-04-04T00:18:51.980Z,0
2017-04-04T00:21:15.484Z,0
2017-04-04T00:23:39.023Z,0
2017-04-04T00:26:02.363Z,0
2017-04-04T00:28:25.843Z,0
2017-04-04T00:30:49.293Z,0
2017-04-04T00:33:12.740Z,0
2017-04-04T00:35:36.365Z,0
2017-04-04T00:37:59.665Z,0
2017-04-04T00:40:14.743Z,0
2017-04-04T00:42:38.308Z,0
2017-04-04T00:45:01.758Z,0
2017-04-04T00:47:25.187Z,0
2017-04-04T00:49:48.645Z,0
2017-04-04T00:52:12.092Z,0
2017-04-04T00:54:35.608Z,0
2017-04-04T00:57:00.207Z,0
2017-04-04T00:59:23.607Z,0
2017-04-04T01:01:47.179Z,0
2017-04-04T01:04:10.748Z,0
2017-04-04T01:06:34.068Z,0
2017-04-04T01:08:57.536Z,0
2017-04-04T01:11:21.000Z,0
2017-04-04T01:13:44.432Z,0
2017-04-04T01:16:07.914Z,0
2017-04-04T01:18:31.363Z,0
2017-04-04T01:20:54.811Z,0
2017-04-04T01:23:18.258Z,0
2017-04-04T01:25:41.658Z,0
2017-04-04T01:28:05.111Z,0
2017-04-04T01:30:28.648Z,0
2017-04-04T01:32:52.064Z,0
2017-04-04T01:35:07.191Z,0
2017-04-04T01:37:30.579Z,0
2017-04-04T01:39:54.010Z,0
2017-04-04T01:42:17.322Z,0
2017-04-04T01:44:40.705Z,0
2017-04-04T01:47:04.097Z,0
2017-04-04T01:49:27.416Z,0
2017-04-04T01:51:50.891Z,0
2017-04-04T01:54:14.508Z,0
2017-04-04T01:56:37.705Z,0
2017-04-04T01:59:01.400Z,0
2017-04-04T02:01:24.877Z,0
2017-04-04T02:03:48.293Z,0
2017-04-04T02:06:11.682Z,0
2017-04-04T02:08:35.178Z,0
2017-04-04T02:10:58.637Z,0
2017-04-04T02:13:22.095Z,0
2017-04-04T02:15:45.487Z,0
2017-04-04T02:18:08.712Z,0
2017-04-04T02:20:32.116Z,0
2017-04-04T02:22:55.453Z,0
2017-04-04T02:25:18.780Z,0
2017-04-04T02:27:42.157Z,0
2017-04-04T02:30:05.545Z,0
2017-04-04T02:32:29.026Z,0
2017-04-04T02:34:52.286Z,0
2017-04-04T02:37:15.837Z,0
2017-04-04T02:39:39.201Z,0
2017-04-04T02:42:02.560Z,0
2017-04-04T02:44:26.997Z,0
2017-04-04T02:46:41.858Z,0
2017-04-04T02:49:05.167Z,0
2017-04-04T02:51:28.533Z,0
2017-04-04T02:53:51.994Z,0
2017-04-04T02:56:15.375Z,0
2017-04-04T02:58:38.647Z,0
2017-04-04T03:01:02.336Z,0
2017-04-04T03:03:25.553Z,0
2017-04-04T03:05:48.912Z,0
2017-04-04T03:08:12.290Z,0
2017-04-04T03:10:35.577Z,0
2017-04-04T03:12:58.782Z,0
2017-04-04T03:15:22.099Z,0
2017-04-04T03:17:45.361Z,0
2017-04-04T03:21:46.397Z,0
2017-04-04T03:24:09.936Z,0
2017-04-04T03:26:34.364Z,0
2017-04-04T03:28:57.585Z,0
2017-04-04T03:31:21.037Z,0
2017-04-04T03:33:44.563Z,0
2017-04-04T03:36:07.978Z,0
2017-04-04T03:38:31.319Z,0
2017-04-04T03:40:54.585Z,0
2017-04-04T03:43:17.944Z,0
2017-04-04T03:45:41.173Z,0
2017-04-04T03:48:04.457Z,0
2017-04-04T03:50:27.716Z,0
2017-04-04T03:52:51.093Z,0
2017-04-04T03:55:14.212Z,0
2017-04-04T03:57:37.671Z,0
2017-04-04T04:00:00.967Z,0
2017-04-04T04:02:24.644Z,0
2017-04-04T04:04:48.018Z,0
2017-04-04T04:07:11.171Z,0
2017-04-04T04:09:34.592Z,0
2017-04-04T04:11:58.041Z,0
2017-04-04T04:14:21.593Z,0
2017-04-04T04:16:45.464Z,0
2017-04-04T04:19:08.666Z,0
2017-04-04T04:21:32.060Z,0
2017-04-04T04:23:55.434Z,0
2017-04-04T04:26:18.714Z,0
2017-04-04T04:28:42.309Z,0
2017-04-04T04:31:05.819Z,0
2017-04-04T04:33:36.748Z,0
2017-04-04T04:36:00.095Z,0
2017-04-04T04:38:15.200Z,0
2017-04-04T04:40:38.420Z,0
2017-04-04T04:43:01.691Z,0
2017-04-04T04:45:25.025Z,0
2017-04-04T04:52:09.869Z,0
2017-04-04T04:54:33.170Z,0
2017-04-04T04:56:56.548Z,0
2017-04-04T04:59:20.754Z,0
2017-04-04T05:01:51.148Z,5
2017-04-04T05:04:14.823Z,5
2017-04-04T05:06:38.279Z,5
2017-04-04T05:09:01.969Z,5
2017-04-04T05:11:25.248Z,10
2017-04-04T05:13:49.029Z,10
2017-04-04T05:18:13.619Z,15
2017-04-04T05:20:36.985Z,15
2017-04-04T05:23:00.472Z,20
2017-04-04T05:25:23.689Z,25
2017-04-04T05:27:47.118Z,30
2017-04-04T05:30:10.579Z,45
2017-04-04T05:32:33.931Z,60
2017-04-04T05:34:57.289Z,70
2017-04-04T05:37:20.893Z,80
2017-04-04T05:41:20.032Z,95
2017-04-04T05:43:43.602Z,110
2017-04-04T05:46:07.313Z,130
2017-04-04T05:48:30.784Z,145
2017-04-04T05:50:54.648Z,165
2017-04-04T05:53:18.397Z,195
2017-04-04T05:55:42.078Z,205
2017-04-04T05:58:05.723Z,220
2017-04-04T06:00:29.458Z,220
2017-04-04T06:07:13.840Z,295
2017-04-04T06:09:37.775Z,330
2017-04-04T06:12:01.796Z,345
2017-04-04T06:14:25.764Z,375
2017-04-04T06:16:50.754Z,355
2017-04-04T06:19:14.894Z,395
2017-04-04T06:21:38.979Z,400
2017-04-04T06:24:03.260Z,460
2017-04-04T06:26:27.253Z,440
2017-04-04T06:28:51.382Z,450
2017-04-04T06:31:15.520Z,485
2017-04-04T06:33:39.693Z,535
2017-04-04T06:36:03.880Z,530
2017-04-04T06:38:28.144Z,545
2017-04-04T06:40:52.261Z,540
2017-04-04T06:43:16.496Z,590
2017-04-04T06:45:41.091Z,460
2017-04-04T06:48:05.215Z,275
2017-04-04T06:50:29.415Z,275
2017-04-04T06:52:53.498Z,275
2017-04-04T06:55:17.543Z,285
2017-04-04T06:59:34.537Z,295
2017-04-04T07:01:50.297Z,300
2017-04-04T07:04:14.505Z,310
2017-04-04T07:06:38.780Z,540
2017-04-04T07:09:03.391Z,850
2017-04-04T07:11:27.852Z,875
2017-04-04T07:13:52.454Z,805
2017-04-04T07:16:17.101Z,455
2017-04-04T07:18:41.856Z,615
2017-04-04T07:21:06.470Z,475
2017-04-04T07:23:31.224Z,430
2017-04-04T07:27:14.119Z,455
2017-04-04T07:31:41.726Z,475
2017-04-04T07:34:07.029Z,485
2017-04-04T07:36:32.351Z,495
2017-04-04T07:38:57.833Z,495
2017-04-04T07:41:23.363Z,500
2017-04-04T07:43:48.974Z,355
2017-04-04T07:48:17.992Z,645
2017-04-04T07:50:44.183Z,1115
2017-04-04T07:53:09.935Z,1150
2017-04-04T07:55:35.607Z,1115
2017-04-04T07:58:01.410Z,600
2017-04-04T08:00:26.975Z,465
2017-04-04T08:02:52.585Z,435
2017-04-04T08:05:17.969Z,425
2017-04-04T08:09:53.565Z,380
2017-04-04T08:12:18.709Z,360
2017-04-04T08:14:43.730Z,335
2017-04-04T08:17:08.603Z,290
2017-04-04T08:19:24.912Z,245
2017-04-04T08:21:49.659Z,225
2017-04-04T08:24:14.284Z,290
2017-04-04T08:26:30.351Z,315
2017-04-04T08:28:54.906Z,390
2017-04-04T08:31:19.444Z,240
2017-04-04T08:33:43.846Z,340
2017-04-04T08:38:18.264Z,390
2017-04-04T08:40:42.713Z,290
2017-04-04T08:43:07.170Z,365
2017-04-04T08:45:31.573Z,390
2017-04-04T08:47:56.000Z,395
2017-04-04T08:50:20.616Z,375
2017-04-04T08:52:44.900Z,405
2017-04-04T08:55:09.352Z,390
2017-04-04T08:57:33.968Z,390
2017-04-04T08:59:58.450Z,375
2017-04-04T09:02:23.093Z,350
2017-04-04T09:04:47.738Z,340
2017-04-04T09:07:12.273Z,350
2017-04-04T09:09:36.993Z,340
2017-04-04T09:12:01.557Z,335
2017-04-04T09:14:26.318Z,330
2017-04-04T09:16:50.935Z,320
2017-04-04T09:19:15.591Z,325
2017-04-04T09:21:40.226Z,320
2017-04-04T09:24:04.868Z,315
2017-04-04T09:26:29.636Z,310
2017-04-04T09:28:54.353Z,305
2017-04-04T09:31:18.955Z,295
2017-04-04T09:33:43.674Z,295
2017-04-04T09:36:08.358Z,295
2017-04-04T09:38:33.052Z,290
2017-04-04T09:40:57.755Z,280
2017-04-04T09:43:22.372Z,275
2017-04-04T09:45:47.054Z,265
2017-04-04T09:48:11.665Z,260
2017-04-04T09:50:36.331Z,255
2017-04-04T09:53:00.925Z,245
2017-04-04T09:55:25.528Z,235
2017-04-04T09:57:50.140Z,235
2017-04-04T10:00:14.665Z,230
2017-04-04T10:02:39.415Z,230
2017-04-04T10:05:03.812Z,220
2017-04-04T10:07:28.447Z,215
2017-04-04T10:09:52.877Z,210
2017-04-04T10:12:17.584Z,205
2017-04-04T10:14:42.093Z,200
2017-04-04T10:17:06.564Z,200
2017-04-04T10:19:31.124Z,195
2017-04-04T10:21:55.577Z,190
2017-04-04T10:24:20.054Z,185
2017-04-04T10:26:44.451Z,185
2017-04-04T10:29:08.996Z,180
2017-04-04T10:31:33.359Z,180
2017-04-04T10:33:57.834Z,175
2017-04-04T10:36:22.289Z,175
2017-04-04T10:38:46.814Z,170
2017-04-04T10:42:47.462Z,165
2017-04-04T10:45:11.955Z,165
2017-04-04T10:47:36.425Z,160
2017-04-04T10:50:00.825Z,160
2017-04-04T10:52:25.256Z,160
2017-04-04T10:54:49.663Z,155
2017-04-04T10:57:14.006Z,150
2017-04-04T10:59:38.447Z,145
2017-04-04T11:02:02.842Z,145
2017-04-04T11:04:27.306Z,145
2017-04-04T11:06:51.797Z,150
2017-04-04T11:09:16.195Z,145
2017-04-04T11:11:40.644Z,140
2017-04-04T11:14:04.902Z,140
2017-04-04T11:16:29.213Z,140
2017-04-04T11:18:53.601Z,140
2017-04-04T11:21:18.042Z,135
2017-04-04T11:23:42.375Z,135
2017-04-04T11:27:42.551Z,130
2017-04-04T11:30:06.912Z,130
2017-04-04T11:32:31.294Z,105
2017-04-04T11:34:55.609Z,125
2017-04-04T11:37:19.851Z,120
2017-04-04T11:39:44.119Z,120
2017-04-04T11:42:08.512Z,115
2017-04-04T11:44:33.002Z,115
2017-04-04T11:48:25.130Z,120
2017-04-04T11:50:49.476Z,120
2017-04-04T11:53:13.786Z,115
2017-04-04T11:55:38.094Z,115
2017-04-04T11:58:02.378Z,115
2017-04-04T12:00:18.386Z,110
2017-04-04T12:02:42.847Z,105
2017-04-04T12:05:07.079Z,105
2017-04-04T12:07:31.396Z,105
2017-04-04T12:09:55.499Z,95
2017-04-04T12:12:19.761Z,95
2017-04-04T12:14:44.138Z,100
2017-04-04T12:17:08.354Z,100
2017-04-04T12:19:32.655Z,105
2017-04-04T12:21:56.876Z,100
2017-04-04T12:24:21.169Z,100
2017-04-04T12:26:45.427Z,90
2017-04-04T12:29:09.656Z,90
2017-04-04T12:31:33.987Z,90
2017-04-04T12:33:58.181Z,95
2017-04-04T12:36:22.425Z,90
2017-04-04T12:38:46.740Z,90
2017-04-04T12:41:10.950Z,90
2017-04-04T12:43:35.225Z,85
2017-04-04T12:45:59.390Z,85
2017-04-04T12:48:23.699Z,85
2017-04-04T12:50:47.975Z,85
2017-04-04T12:53:12.107Z,85
2017-04-04T12:55:36.366Z,85
2017-04-04T12:58:00.535Z,85
2017-04-04T13:00:24.830Z,85
2017-04-04T13:02:48.921Z,85
2017-04-04T13:05:13.117Z,85
2017-04-04T13:07:37.285Z,85
2017-04-04T13:10:01.445Z,80
2017-04-04T13:12:17.268Z,75
2017-04-04T13:14:41.340Z,80
2017-04-04T13:17:05.409Z,80
2017-04-04T13:19:30.508Z,80
2017-04-04T13:21:54.703Z,80
2017-04-04T13:24:18.996Z,80
2017-04-04T13:26:43.020Z,80
2017-04-04T13:29:07.272Z,80
2017-04-04T13:31:31.251Z,80
2017-04-04T13:33:55.325Z,80
2017-04-04T13:36:19.510Z,80
2017-04-04T13:38:43.621Z,75
2017-04-04T13:41:07.716Z,75
2017-04-04T13:43:31.830Z,75
2017-04-04T13:45:56.066Z,80
2017-04-04T13:48:20.018Z,80
2017-04-04T13:50:44.213Z,80
2017-04-04T13:53:08.166Z,80
2017-04-04T13:55:32.354Z,80
2017-04-04T13:57:56.374Z,75
2017-04-04T14:00:20.449Z,75
2017-04-04T14:02:44.599Z,70
2017-04-04T14:05:08.709Z,70
2017-04-04T14:07:32.737Z,70
2017-04-04T14:09:56.950Z,75
2017-04-04T14:12:20.941Z,70
2017-04-04T14:14:45.131Z,65
2017-04-04T14:17:09.231Z,65
2017-04-04T14:19:33.324Z,65
2017-04-04T14:21:57.358Z,70
2017-04-04T14:24:21.452Z,70
2017-04-04T14:26:45.603Z,70
2017-04-04T14:29:09.620Z,70
2017-04-04T14:31:33.655Z,70
2017-04-04T14:33:57.741Z,70
2017-04-04T14:36:21.670Z,70
2017-04-04T14:38:45.731Z,70
2017-04-04T14:41:09.851Z,65
2017-04-04T14:43:34.006Z,70
2017-04-04T14:45:57.967Z,70
2017-04-04T14:48:21.925Z,65
2017-04-04T14:50:45.963Z,65
2017-04-04T14:53:09.964Z,55
2017-04-04T14:55:33.942Z,55
2017-04-04T14:57:57.927Z,60
2017-04-04T15:00:21.963Z,65
2017-04-04T15:02:45.942Z,65
2017-04-04T15:05:10.000Z,65
2017-04-04T15:07:33.924Z,65
2017-04-04T15:09:57.949Z,65
2017-04-04T15:12:21.941Z,60
2017-04-04T15:16:21.697Z,60
2017-04-04T15:18:37.291Z,60
2017-04-04T15:21:01.239Z,50
2017-04-04T15:23:25.199Z,60
2017-04-04T15:25:49.156Z,55
2017-04-04T15:28:13.415Z,60
2017-04-04T15:30:37.235Z,60
2017-04-04T15:33:01.239Z,60
2017-04-04T15:37:35.435Z,55
2017-04-04T15:39:51.197Z,55
2017-04-04T15:42:15.292Z,55
2017-04-04T15:44:40.163Z,55
2017-04-04T15:47:07.494Z,55
2017-04-04T15:49:29.863Z,55
2017-04-04T15:51:54.355Z,55
2017-04-04T15:54:10.034Z,55
2017-04-04T15:56:34.114Z,55
2017-04-04T16:00:59.840Z,50
2017-04-04T16:03:23.881Z,50
2017-04-04T16:05:48.099Z,50
2017-04-04T16:08:12.009Z,50
2017-04-04T16:10:36.217Z,50
2017-04-04T16:13:00.187Z,50
2017-04-04T16:15:24.150Z,45
2017-04-04T16:17:48.281Z,45
2017-04-04T16:20:12.126Z,45
2017-04-04T16:22:36.105Z,45
2017-04-04T16:25:00.045Z,45
2017-04-04T16:27:24.065Z,40
2017-04-04T16:29:47.928Z,40
2017-04-04T16:32:11.979Z,40
2017-04-04T16:34:35.985Z,40
2017-04-04T16:37:00.773Z,40
2017-04-04T16:39:24.750Z,40
2017-04-04T16:41:48.677Z,35
2017-04-04T16:46:15.829Z,35
2017-04-04T16:48:40.497Z,35
2017-04-04T16:51:04.385Z,30
2017-04-04T16:53:28.192Z,30
2017-04-04T16:55:52.053Z,30
2017-04-04T16:58:15.988Z,30
2017-04-04T17:00:39.860Z,25
2017-04-04T17:03:03.778Z,25
2017-04-04T17:05:27.669Z,25
2017-04-04T17:07:51.521Z,25
2017-04-04T17:10:15.429Z,20
2017-04-04T17:12:39.302Z,20
2017-04-04T17:15:03.138Z,20
2017-04-04T17:17:28.997Z,20
2017-04-04T17:19:53.490Z,15
2017-04-04T17:22:17.418Z,15
2017-04-04T17:24:42.312Z,15
2017-04-04T17:27:06.199Z,15
2017-04-04T17:29:31.842Z,10
2017-04-04T17:31:55.781Z,10
2017-04-04T17:34:19.547Z,10
2017-04-04T17:36:43.316Z,10
2017-04-04T17:39:07.234Z,5
2017-04-04T17:41:31.029Z,5
2017-04-04T17:43:54.906Z,5
2017-04-04T17:46:18.750Z,5
2017-04-04T17:48:42.550Z,5
2017-04-04T17:51:06.398Z,5
2017-04-04T17:53:30.142Z,0
2017-04-04T17:55:54.005Z,0
2017-04-04T17:58:17.669Z,0
2017-04-04T18:00:41.554Z,0
2017-04-04T18:03:05.391Z,0
2017-04-04T18:05:29.235Z,0
2017-04-04T18:07:52.965Z,0
2017-04-04T18:10:16.777Z,0
2017-04-04T18:12:40.563Z,0
2017-04-04T18:15:04.316Z,0
2017-04-04T18:17:28.089Z,0
2017-04-04T18:19:51.757Z,0
2017-04-04T18:22:15.484Z,0
2017-04-04T18:24:39.215Z,0
2017-04-04T18:27:02.959Z,0
2017-04-04T18:29:26.756Z,0
2017-04-04T18:31:50.492Z,0
2017-04-04T18:34:14.189Z,0
2017-04-04T18:36:37.984Z,0
2017-04-04T18:39:01.677Z,0
2017-04-04T18:41:25.448Z,0
2017-04-04T18:43:49.653Z,0
2017-04-04T18:46:13.736Z,0
2017-04-04T18:48:37.524Z,0
2017-04-04T18:51:01.224Z,0
2017-04-04T18:53:26.784Z,0
2017-04-04T18:55:50.569Z,0
2017-04-04T18:58:14.221Z,0
2017-04-04T19:00:37.912Z,0
2017-04-04T19:03:01.636Z,0
2017-04-04T19:05:25.343Z,0
2017-04-04T19:07:49.085Z,0
2017-04-04T19:10:12.832Z,0
2017-04-04T19:12:36.703Z,0
2017-04-04T19:15:03.230Z,0
2017-04-04T19:17:26.967Z,0
2017-04-04T19:19:50.754Z,0
2017-04-04T19:22:14.427Z,0
2017-04-04T19:24:38.181Z,0
2017-04-04T19:27:01.953Z,0
2017-04-04T19:29:25.735Z,0
2017-04-04T19:31:49.409Z,0
2017-04-04T19:34:13.178Z,0
2017-04-04T19:36:36.914Z,0
2017-04-04T19:40:28.004Z,0
2017-04-04T19:42:51.836Z,0
2017-04-04T19:47:25.295Z,0
2017-04-04T19:49:49.011Z,0
2017-04-04T19:52:12.720Z,0
2017-04-04T19:54:36.486Z,0
2017-04-04T19:57:00.070Z,0
2017-04-04T19:59:23.706Z,0
2017-04-04T20:01:47.347Z,0
2017-04-04T20:04:10.972Z,0
2017-04-04T20:06:34.636Z,0
2017-04-04T20:09:00.442Z,0
2017-04-04T20:11:23.976Z,0
2017-04-04T20:13:47.575Z,0
2017-04-04T20:16:11.133Z,0
2017-04-04T20:18:34.730Z,0
2017-04-04T20:20:58.343Z,0
2017-04-04T20:23:13.520Z,0
2017-04-04T20:25:37.035Z,0
2017-04-04T20:28:00.546Z,0
2017-04-04T20:30:24.135Z,0
2017-04-04T20:32:47.662Z,0
2017-04-04T20:35:11.215Z,0
2017-04-04T20:37:34.762Z,0
2017-04-04T20:39:58.316Z,0
2017-04-04T20:42:13.460Z,0
2017-04-04T20:44:28.558Z,0
2017-04-04T20:46:52.150Z,0
2017-04-04T20:49:15.656Z,0
2017-04-04T20:53:40.868Z,0
2017-04-04T20:56:04.450Z,0
2017-04-04T20:58:28.009Z,0
2017-04-04T21:02:44.879Z,0
2017-04-04T21:04:51.623Z,0
2017-04-04T21:07:15.190Z,0
2017-04-04T21:11:40.521Z,0
2017-04-04T21:14:04.089Z,0
2017-04-04T21:16:27.651Z,0
2017-04-04T21:18:51.177Z,0
2017-04-04T21:21:15.671Z,0
2017-04-04T21:23:39.152Z,0
2017-04-04T21:26:02.746Z,0
2017-04-04T21:28:26.062Z,0
2017-04-04T21:30:49.521Z,0
2017-04-04T21:33:13.000Z,0
2017-04-04T21:35:36.548Z,0
2017-04-04T21:37:59.910Z,0
2017-04-04T21:40:23.541Z,0
2017-04-04T21:42:46.889Z,0
2017-04-04T21:45:10.467Z,0
2017-04-04T21:47:34.944Z,0
2017-04-04T21:49:58.406Z,0
2017-04-04T21:52:21.955Z,0
2017-04-04T21:54:45.396Z,0
2017-04-04T21:57:08.849Z,0
2017-04-04T21:59:32.273Z,0
2017-04-04T22:01:55.778Z,0
2017-04-04T22:04:19.120Z,0
2017-04-04T22:08:27.293Z,0
2017-04-04T22:12:52.590Z,0
2017-04-04T22:15:16.092Z,0
2017-04-04T22:17:39.511Z,0
2017-04-04T22:20:03.018Z,0
2017-04-04T22:22:26.522Z,0
2017-04-04T22:26:26.186Z,0
2017-04-04T22:28:41.275Z,0
2017-04-04T22:33:06.531Z,0
2017-04-04T22:35:29.966Z,0
2017-04-04T22:37:53.437Z,0
2017-04-04T22:40:08.436Z,0
2017-04-04T22:42:31.887Z,0
2017-04-04T22:44:55.287Z,0
2017-04-04T22:47:18.778Z,0
2017-04-04T22:49:42.130Z,0
2017-04-04T22:52:05.672Z,0
2017-04-04T22:54:28.986Z,0
2017-04-04T22:56:52.331Z,0
2017-04-04T22:59:15.775Z,0
2017-04-04T23:01:39.181Z,0
2017-04-04T23:04:02.635Z,0
2017-04-04T23:06:26.081Z,0
2017-04-04T23:08:41.259Z,0
2017-04-04T23:11:04.537Z,0
2017-04-04T23:13:27.909Z,0
2017-04-04T23:15:42.978Z,0
2017-04-04T23:18:06.446Z,0
2017-04-04T23:20:29.854Z,0
2017-04-04T23:22:53.324Z,0
2017-04-04T23:25:16.819Z,0
2017-04-04T23:27:40.228Z,0
2017-04-04T23:30:03.777Z,0
2017-04-04T23:32:27.151Z,0
2017-04-04T23:34:50.680Z,0
2017-04-04T23:37:14.109Z,0
2017-04-04T23:39:37.559Z,0
2017-04-04T23:42:00.942Z,0
2017-04-04T23:46:26.013Z,0
2017-04-04T23:48:49.484Z,0
2017-04-04T23:51:12.859Z,0
2017-04-04T23:53:36.241Z,0
2017-04-04T23:55:59.771Z,0
2017-04-04T23:58:23.156Z,0
